Time;durP1;ratioP1;P1;durP2;ratioP2;P2;SDS_P1;SDS_P2;PMS_P1;PMS_P2;Temp;Humidity;BMP_temperature;BMP_pressure;BME280_temperature;BME280_humidity;BME280_pressure;Samples;Min_cycle;Max_cycle;Signal;HPM_P1;HPM_P2
2022/05/23 00:02:09;;;;;;;5.85;2.83;;;13.50;99.90;;;;;;4949790;28;20480;-76
2022/05/23 00:04:35;;;;;;;5.45;2.88;;;13.40;99.90;;;;;;4962837;28;20486;-76
2022/05/23 00:07:02;;;;;;;8.25;3.20;;;13.40;99.90;;;;;;4951631;28;20415;-76
2022/05/23 00:09:29;;;;;;;5.40;2.90;;;13.40;99.90;;;;;;4934541;28;20121;-77
2022/05/23 00:11:55;;;;;;;4.88;2.97;;;13.40;99.90;;;;;;4952635;28;20496;-76
2022/05/23 00:14:21;;;;;;;5.05;3.00;;;13.40;99.90;;;;;;4951473;28;20054;-77
2022/05/23 00:16:49;;;;;;;5.78;3.03;;;13.40;99.90;;;;;;4949751;28;20046;-76
2022/05/23 00:19:16;;;;;;;5.82;3.25;;;13.30;99.90;;;;;;4951624;28;20428;-76
2022/05/23 00:21:45;;;;;;;6.25;3.15;;;13.30;99.90;;;;;;4963361;28;20045;-76
2022/05/23 00:24:13;;;;;;;3.58;2.90;;;13.30;99.90;;;;;;4964691;28;20053;-76
2022/05/23 00:26:40;;;;;;;5.35;3.22;;;13.30;99.90;;;;;;4960763;28;20046;-76
2022/05/23 00:29:06;;;;;;;4.45;3.05;;;13.30;99.90;;;;;;4951313;28;20551;-76
2022/05/23 00:31:32;;;;;;;5.15;2.92;;;13.30;99.90;;;;;;4948153;28;20046;-76
2022/05/23 00:36:42;;;;;;;4.35;3.05;;;13.20;99.90;;;;;;4966854;28;20439;-76
2022/05/23 00:39:08;;;;;;;4.28;2.70;;;13.10;99.90;;;;;;4949869;28;20038;-76
2022/05/23 00:44:25;;;;;;;7.70;3.17;;;13.10;99.90;;;;;;4962522;28;20043;-76
2022/05/23 00:47:14;;;;;;;3.10;2.60;;;13.00;99.90;;;;;;4963143;28;20046;-76
2022/05/23 00:49:39;;;;;;;5.65;2.80;;;13.00;99.90;;;;;;4950616;28;20052;-76
2022/05/23 00:52:09;;;;;;;4.05;3.00;;;13.00;99.90;;;;;;4941181;28;20050;-76
2022/05/23 00:54:40;;;;;;;5.18;2.72;;;13.00;99.90;;;;;;4966252;28;20162;-76
2022/05/23 00:57:11;;;;;;;7.73;2.90;;;12.90;99.90;;;;;;4951718;28;20046;-76
2022/05/23 00:59:38;;;;;;;5.80;2.72;;;12.90;99.90;;;;;;4964080;28;20034;-76
2022/05/23 01:02:06;;;;;;;6.00;3.17;;;12.80;99.90;;;;;;4948507;28;20086;-76
2022/05/23 01:04:32;;;;;;;5.10;2.63;;;12.80;99.90;;;;;;4951534;28;20046;-76
2022/05/23 01:06:58;;;;;;;3.63;2.70;;;12.80;99.90;;;;;;4966066;28;20045;-76
2022/05/23 01:09:26;;;;;;;4.90;3.20;;;12.80;99.90;;;;;;4949486;28;20370;-76
2022/05/23 01:11:54;;;;;;;5.18;3.05;;;12.70;99.90;;;;;;4965970;28;20051;-76
2022/05/23 01:14:20;;;;;;;5.60;3.03;;;12.60;99.90;;;;;;4943927;28;20039;-76
2022/05/23 01:16:46;;;;;;;6.15;2.90;;;12.60;99.90;;;;;;4968363;28;20041;-76
2022/05/23 01:19:12;;;;;;;5.05;3.35;;;12.50;99.90;;;;;;4961032;28;20050;-76
2022/05/23 01:21:44;;;;;;;6.40;3.60;;;12.50;99.90;;;;;;4966157;28;20049;-76
2022/05/23 01:24:31;;;;;;;5.65;2.80;;;12.40;99.90;;;;;;4964327;28;20047;-76
2022/05/23 01:26:58;;;;;;;3.85;3.20;;;12.40;99.90;;;;;;4962602;28;20061;-76
2022/05/23 01:29:25;;;;;;;4.10;2.92;;;12.30;99.90;;;;;;4965132;28;20050;-76
2022/05/23 01:31:53;;;;;;;5.72;3.78;;;12.30;99.90;;;;;;4948620;28;20038;-76
2022/05/23 01:34:19;;;;;;;4.72;3.70;;;12.20;99.90;;;;;;4949484;28;20046;-76
2022/05/23 01:36:44;;;;;;;7.00;3.53;;;12.30;99.90;;;;;;4967497;28;20555;-76
2022/05/23 01:39:10;;;;;;;6.88;3.88;;;12.20;99.90;;;;;;4964932;28;20480;-76
2022/05/23 01:41:36;;;;;;;5.38;3.70;;;12.20;99.90;;;;;;4966137;28;20041;-76
2022/05/23 01:44:01;;;;;;;4.13;3.60;;;12.20;99.90;;;;;;4950147;28;20050;-76
2022/05/23 01:46:27;;;;;;;5.35;3.53;;;12.20;99.90;;;;;;4934313;28;20488;-76
2022/05/23 01:48:53;;;;;;;4.95;3.60;;;12.20;99.90;;;;;;4951472;28;20038;-76
2022/05/23 01:51:19;;;;;;;5.93;3.60;;;12.20;99.90;;;;;;4965940;28;20125;-76
2022/05/23 01:53:45;;;;;;;7.43;4.00;;;12.20;99.90;;;;;;4934000;28;20618;-75
2022/05/23 01:56:11;;;;;;;7.10;3.47;;;12.20;99.90;;;;;;4933754;28;20045;-76
2022/05/23 02:01:21;;;;;;;5.18;4.05;;;12.20;99.90;;;;;;4965568;28;20442;-76
2022/05/23 02:03:48;;;;;;;5.35;3.85;;;12.20;99.90;;;;;;4970716;28;20050;-76
2022/05/23 02:06:14;;;;;;;6.68;3.90;;;12.20;99.90;;;;;;4971517;28;20457;-76
2022/05/23 02:08:40;;;;;;;4.72;3.85;;;12.20;99.90;;;;;;4970161;28;20046;-76
2022/05/23 02:11:07;;;;;;;7.45;4.00;;;12.10;99.90;;;;;;4953554;28;20108;-76
2022/05/23 02:13:34;;;;;;;5.32;3.92;;;12.20;99.90;;;;;;4982904;28;20045;-76
2022/05/23 02:16:00;;;;;;;5.07;4.13;;;12.10;99.90;;;;;;4966923;28;20042;-76
2022/05/23 02:18:27;;;;;;;5.90;4.45;;;12.10;99.90;;;;;;4955590;28;20050;-76
2022/05/23 02:20:53;;;;;;;5.82;3.97;;;12.10;99.90;;;;;;4964976;28;20165;-76
2022/05/23 02:23:19;;;;;;;7.80;3.80;;;12.10;99.90;;;;;;4953878;28;20117;-76
2022/05/23 02:25:45;;;;;;;6.10;4.57;;;12.20;99.90;;;;;;4952437;28;20057;-76
2022/05/23 02:28:12;;;;;;;6.63;4.47;;;12.10;99.90;;;;;;4952706;28;20038;-76
2022/05/23 02:30:38;;;;;;;8.07;4.20;;;12.10;99.90;;;;;;4966609;28;20096;-76
2022/05/23 02:33:04;;;;;;;7.43;4.15;;;12.10;99.90;;;;;;4968035;28;20046;-76
2022/05/23 02:35:30;;;;;;;5.63;4.22;;;12.10;99.90;;;;;;4952301;28;20483;-76
2022/05/23 02:37:56;;;;;;;4.30;3.90;;;12.10;99.90;;;;;;4966195;28;20403;-76
2022/05/23 02:40:22;;;;;;;5.13;3.67;;;12.20;99.90;;;;;;4953293;28;20031;-76
2022/05/23 02:42:48;;;;;;;5.38;3.35;;;12.20;99.90;;;;;;4953286;28;20542;-76
2022/05/23 02:45:13;;;;;;;7.30;3.97;;;12.20;99.90;;;;;;4953005;28;20057;-76
2022/05/23 02:47:39;;;;;;;5.20;4.40;;;12.30;99.90;;;;;;4967314;28;20569;-76
2022/05/23 02:50:06;;;;;;;6.43;3.80;;;12.30;99.90;;;;;;4966689;28;20034;-76
2022/05/23 02:52:32;;;;;;;5.82;3.65;;;12.30;99.90;;;;;;4952431;28;20045;-76
2022/05/23 02:54:58;;;;;;;6.40;4.07;;;12.30;99.90;;;;;;4969394;28;20459;-76
2022/05/23 02:57:23;;;;;;;5.95;3.97;;;12.40;99.90;;;;;;4964143;28;20484;-76
2022/05/23 02:59:49;;;;;;;9.70;4.10;;;12.40;99.90;;;;;;4969012;28;20104;-76
2022/05/23 03:04:59;;;;;;;8.73;3.85;;;12.50;99.90;;;;;;4955106;28;20055;-76
2022/05/23 03:07:25;;;;;;;7.00;3.85;;;12.50;99.90;;;;;;4954160;28;20137;-76
2022/05/23 03:09:50;;;;;;;5.35;3.80;;;12.50;99.90;;;;;;4951173;28;20267;-76
2022/05/23 03:12:16;;;;;;;7.00;4.13;;;12.50;99.90;;;;;;4937969;28;21085;-76
2022/05/23 03:14:42;;;;;;;5.03;4.53;;;12.50;99.90;;;;;;4933711;28;20050;-76
2022/05/23 03:17:08;;;;;;;6.70;4.15;;;12.50;99.90;;;;;;4951934;28;20057;-76
2022/05/23 03:19:36;;;;;;;8.40;4.43;;;12.50;99.90;;;;;;4936206;28;20125;-76
2022/05/23 03:27:30;;;;;;;9.25;4.60;;;12.60;99.90;;;;;;4966179;28;20096;-76
2022/05/23 03:29:55;;;;;;;8.07;4.65;;;12.60;99.90;;;;;;4966681;28;21075;-76
2022/05/23 03:32:23;;;;;;;7.57;4.22;;;12.60;99.90;;;;;;4966364;28;20121;-76
2022/05/23 03:34:48;;;;;;;5.47;4.40;;;12.60;99.90;;;;;;4965182;28;20096;-76
2022/05/23 03:37:16;;;;;;;7.05;4.15;;;12.60;99.90;;;;;;4967416;28;20132;-76
2022/05/23 03:39:41;;;;;;;6.95;4.65;;;12.60;99.90;;;;;;4949016;28;20074;-76
2022/05/23 03:42:07;;;;;;;5.43;4.35;;;12.60;99.90;;;;;;4961637;28;20128;-76
2022/05/23 03:44:34;;;;;;;6.07;4.70;;;12.60;99.90;;;;;;4964864;28;20042;-76
2022/05/23 03:47:00;;;;;;;5.05;4.35;;;12.60;99.90;;;;;;4950807;28;20412;-76
2022/05/23 03:49:26;;;;;;;5.90;4.78;;;12.60;99.90;;;;;;4950163;28;20034;-76
2022/05/23 03:51:51;;;;;;;5.80;4.20;;;12.70;99.90;;;;;;4964656;28;20064;-76
2022/05/23 03:54:17;;;;;;;5.88;4.60;;;12.70;99.90;;;;;;4939305;28;20046;-76
2022/05/23 03:56:43;;;;;;;5.45;4.70;;;12.70;99.90;;;;;;4949969;28;20037;-76
2022/05/23 03:59:08;;;;;;;6.40;4.47;;;12.70;99.90;;;;;;4949277;28;20085;-76
2022/05/23 04:01:34;;;;;;;7.47;4.80;;;12.70;99.90;;;;;;4951588;28;20510;-76
2022/05/23 04:04:00;;;;;;;9.07;4.35;;;12.70;99.90;;;;;;4950722;28;20515;-76
2022/05/23 04:06:26;;;;;;;7.32;4.75;;;12.70;99.90;;;;;;4946397;28;20038;-76
2022/05/23 04:08:52;;;;;;;5.75;4.40;;;12.80;99.90;;;;;;4966598;28;20041;-76
2022/05/23 04:11:18;;;;;;;7.28;4.65;;;12.80;99.90;;;;;;4952447;28;20733;-76
2022/05/23 04:13:44;;;;;;;6.82;4.50;;;12.80;99.90;;;;;;4967070;28;20043;-76
2022/05/23 04:16:09;;;;;;;5.43;4.68;;;12.80;99.90;;;;;;4966976;28;20074;-76
2022/05/23 04:18:36;;;;;;;5.78;4.18;;;12.80;99.90;;;;;;4941974;28;20482;-76
2022/05/23 04:21:03;;;;;;;6.18;4.25;;;12.80;99.90;;;;;;4967810;28;20050;-76
2022/05/23 04:23:29;;;;;;;5.40;4.13;;;12.90;99.90;;;;;;4950361;28;20064;-76
2022/05/23 04:25:59;;;;;;;6.35;4.50;;;12.90;99.90;;;;;;4950075;28;20070;-76
2022/05/23 04:28:24;;;;;;;7.32;4.68;;;12.90;99.90;;;;;;4981818;28;20119;-76
2022/05/23 04:30:50;;;;;;;9.05;5.10;;;12.80;99.90;;;;;;4950054;28;20050;-76
2022/05/23 04:36:00;;;;;;;6.50;5.03;;;12.80;99.90;;;;;;4946019;28;20262;-76
2022/05/23 04:38:26;;;;;;;7.43;4.80;;;12.80;99.90;;;;;;4936741;28;20208;-76
2022/05/23 04:40:52;;;;;;;7.18;5.00;;;12.80;99.90;;;;;;4966080;28;20033;-76
2022/05/23 04:43:18;;;;;;;9.10;5.25;;;12.80;99.90;;;;;;4934191;28;20385;-76
2022/05/23 04:45:43;;;;;;;6.90;5.10;;;12.80;99.90;;;;;;4952250;28;20042;-76
2022/05/23 04:50:54;;;;;;;10.48;5.22;;;12.80;99.90;;;;;;4964497;28;20052;-76
2022/05/23 04:53:20;;;;;;;7.53;5.70;;;12.80;99.90;;;;;;4980481;28;20047;-76
2022/05/23 04:55:46;;;;;;;8.07;5.07;;;12.80;99.90;;;;;;4949255;28;20037;-76
2022/05/23 04:58:13;;;;;;;10.05;5.38;;;12.90;99.90;;;;;;4951719;28;20128;-76
2022/05/23 05:00:40;;;;;;;9.45;5.28;;;12.90;99.90;;;;;;4963982;28;20038;-76
2022/05/23 05:03:06;;;;;;;9.43;5.03;;;13.00;99.90;;;;;;4965949;28;20049;-76
2022/05/23 05:05:35;;;;;;;8.18;5.40;;;13.10;99.90;;;;;;4950951;28;20035;-76
2022/05/23 05:08:01;;;;;;;7.60;5.55;;;13.20;99.90;;;;;;4966809;28;20054;-76
2022/05/23 05:10:28;;;;;;;14.50;5.78;;;13.30;99.90;;;;;;4963574;28;20407;-76
2022/05/23 05:12:55;;;;;;;9.45;5.38;;;13.30;99.90;;;;;;4963202;28;20563;-76
2022/05/23 05:15:22;;;;;;;9.65;5.95;;;13.30;99.90;;;;;;4962394;28;20038;-76
2022/05/23 05:17:48;;;;;;;8.20;5.45;;;13.40;99.90;;;;;;4945718;28;20042;-76
2022/05/23 05:20:15;;;;;;;7.30;5.40;;;13.40;99.90;;;;;;4964236;28;20510;-76
2022/05/23 05:22:41;;;;;;;7.30;5.18;;;13.40;99.90;;;;;;4980234;28;20492;-76
2022/05/23 05:25:09;;;;;;;9.52;5.45;;;13.50;99.90;;;;;;4961904;28;20045;-76
2022/05/23 05:27:35;;;;;;;8.95;5.57;;;13.50;99.90;;;;;;4951882;28;20579;-76
2022/05/23 05:30:03;;;;;;;10.57;5.50;;;13.50;99.90;;;;;;4950073;28;20447;-76
2022/05/23 05:32:32;;;;;;;8.60;5.57;;;13.50;99.90;;;;;;4954605;28;20684;-76
2022/05/23 05:35:16;;;;;;;8.32;5.40;;;13.50;99.90;;;;;;4965305;28;20109;-76
2022/05/23 05:37:47;;;;;;;8.55;5.18;;;13.50;99.90;;;;;;4959404;28;20041;-76
2022/05/23 05:40:19;;;;;;;7.97;5.40;;;13.60;99.90;;;;;;4972302;28;20104;-77
2022/05/23 05:42:49;;;;;;;8.85;5.40;;;13.60;99.90;;;;;;4955782;28;20090;-76
2022/05/23 05:45:32;;;;;;;10.48;5.40;;;13.70;99.90;;;;;;4975532;28;20030;-76
2022/05/23 05:47:59;;;;;;;9.50;6.03;;;13.70;99.90;;;;;;4976168;28;20039;-75
2022/05/23 05:50:30;;;;;;;7.88;5.82;;;13.80;99.90;;;;;;4960166;28;20038;-77
2022/05/23 05:52:59;;;;;;;10.73;5.72;;;13.90;99.90;;;;;;4975049;28;20074;-75
2022/05/23 05:55:25;;;;;;;9.05;6.22;;;14.00;99.90;;;;;;4974352;28;20442;-77
2022/05/23 05:57:51;;;;;;;7.25;5.65;;;14.10;99.90;;;;;;4967189;28;20030;-76
2022/05/23 06:00:17;;;;;;;9.98;5.30;;;14.20;99.90;;;;;;4983147;28;20026;-76
2022/05/23 06:02:44;;;;;;;5.78;5.03;;;14.30;99.90;;;;;;4969443;28;20140;-77
2022/05/23 06:05:09;;;;;;;6.78;5.25;;;14.40;99.90;;;;;;4955984;28;20034;-77
2022/05/23 06:13:04;;;;;;;10.43;5.63;;;14.60;99.90;;;;;;4978205;28;20042;-76
2022/05/23 06:15:30;;;;;;;8.10;5.60;;;14.70;99.90;;;;;;4976434;28;20113;-77
2022/05/23 06:17:55;;;;;;;7.32;5.85;;;14.70;99.90;;;;;;4975892;28;20507;-77
2022/05/23 06:20:23;;;;;;;8.52;5.57;;;14.80;99.90;;;;;;4959737;28;20120;-77
2022/05/23 06:22:50;;;;;;;9.13;5.93;;;14.90;99.90;;;;;;4974784;28;20117;-76
2022/05/23 06:25:16;;;;;;;8.35;6.03;;;15.00;99.90;;;;;;4959440;28;20057;-76
2022/05/23 06:27:42;;;;;;;7.90;5.85;;;15.10;99.90;;;;;;4960195;28;20050;-76
2022/05/23 06:30:11;;;;;;;9.68;6.32;;;15.20;99.90;;;;;;4945903;28;20039;-76
2022/05/23 06:32:37;;;;;;;9.10;6.32;;;15.40;99.90;;;;;;4975977;28;20092;-77
2022/05/23 06:35:07;;;;;;;8.90;5.53;;;15.50;99.90;;;;;;4959461;28;20035;-77
2022/05/23 06:37:38;;;;;;;9.60;6.25;;;15.60;99.90;;;;;;4976027;28;20044;-77
2022/05/23 06:40:06;;;;;;;12.73;5.40;;;15.70;99.90;;;;;;4975834;28;20104;-77
2022/05/23 06:42:32;;;;;;;9.40;6.38;;;15.80;99.90;;;;;;4975176;28;20030;-77
2022/05/23 06:44:59;;;;;;;12.52;5.53;;;15.90;99.90;;;;;;4975757;28;20046;-77
2022/05/23 06:47:25;;;;;;;7.57;5.40;;;15.90;99.90;;;;;;4975364;28;20074;-77
2022/05/23 06:49:51;;;;;;;9.18;6.03;;;16.00;99.90;;;;;;4959408;28;20117;-77
2022/05/23 06:52:16;;;;;;;10.38;5.40;;;16.10;99.90;;;;;;4956101;28;20125;-77
2022/05/23 06:54:42;;;;;;;9.20;5.50;;;16.20;99.90;;;;;;4975479;28;20042;-77
2022/05/23 06:57:08;;;;;;;11.77;5.75;;;16.30;99.90;;;;;;4975915;28;20413;-77
2022/05/23 06:59:35;;;;;;;7.60;5.35;;;16.40;99.90;;;;;;4975290;28;20030;-77
2022/05/23 07:02:01;;;;;;;9.32;5.35;;;16.50;99.90;;;;;;4975542;28;20056;-77
2022/05/23 07:12:19;;;;;;;10.93;5.90;;;16.70;99.90;;;;;;4958018;28;20043;-77
2022/05/23 07:12:41;;;;;;;8.80;5.55;;;17.20;99.90;;;;;;4974628;28;20424;-77
2022/05/23 07:15:07;;;;;;;7.07;5.03;;;17.40;99.90;;;;;;4974909;28;20051;-77
2022/05/23 07:17:33;;;;;;;10.77;6.20;;;17.60;99.90;;;;;;4975425;28;20129;-77
2022/05/23 07:19:59;;;;;;;9.38;5.57;;;17.70;99.90;;;;;;4973996;28;20537;-77
2022/05/23 07:22:24;;;;;;;8.80;5.55;;;17.80;99.90;;;;;;4966904;28;20038;-77
2022/05/23 07:24:50;;;;;;;10.43;5.05;;;18.00;99.90;;;;;;4969779;28;20092;-77
2022/05/23 07:27:16;;;;;;;8.00;4.82;;;18.10;99.90;;;;;;4952655;28;20731;-77
2022/05/23 07:29:42;;;;;;;8.23;4.90;;;18.30;99.90;;;;;;4964750;28;20052;-76
2022/05/23 07:32:15;;;;;;;8.27;4.63;;;18.40;99.90;;;;;;4958053;28;20034;-77
2022/05/23 07:34:41;;;;;;;5.20;4.70;;;18.60;99.90;;;;;;4958536;28;20031;-77
2022/05/23 07:37:09;;;;;;;10.27;5.32;;;18.70;99.90;;;;;;4957808;28;20542;-77
2022/05/23 07:39:41;;;;;;;11.23;6.38;;;18.90;99.90;;;;;;4958340;28;20038;-76
2022/05/23 07:42:07;;;;;;;7.05;4.75;;;19.00;99.90;;;;;;4973409;28;20052;-77
2022/05/23 07:44:34;;;;;;;9.55;4.70;;;19.10;99.90;;;;;;4959198;28;20049;-77
2022/05/23 07:47:00;;;;;;;7.60;4.85;;;19.20;99.90;;;;;;4974715;28;20055;-77
2022/05/23 07:49:27;;;;;;;7.75;4.85;;;19.30;99.90;;;;;;4960963;28;20547;-76
2022/05/23 07:51:55;;;;;;;7.43;4.45;;;19.40;99.90;;;;;;4975625;28;20173;-77
2022/05/23 08:02:34;;;;;;;6.53;4.18;;;19.90;99.90;;;;;;4974088;28;20100;-77
2022/05/23 08:04:59;;;;;;;8.60;4.53;;;20.00;99.90;;;;;;4957938;28;20133;-76
2022/05/23 08:07:28;;;;;;;6.38;4.82;;;20.20;99.90;;;;;;4974115;28;20157;-76
2022/05/23 08:09:55;;;;;;;8.77;4.82;;;20.30;99.90;;;;;;4974331;28;20042;-76
2022/05/23 08:12:22;;;;;;;9.50;4.97;;;20.40;99.90;;;;;;4973751;28;20089;-75
2022/05/23 08:14:47;;;;;;;7.40;4.57;;;20.50;99.90;;;;;;4974184;28;20043;-76
2022/05/23 08:17:13;;;;;;;7.43;4.78;;;20.70;99.90;;;;;;4957300;28;20564;-76
2022/05/23 08:19:39;;;;;;;9.68;4.85;;;20.70;99.90;;;;;;4972904;28;20050;-76
2022/05/23 08:22:06;;;;;;;5.53;4.82;;;20.90;99.90;;;;;;4957091;28;20133;-76
2022/05/23 08:24:33;;;;;;;10.25;4.80;;;21.00;99.90;;;;;;4973068;28;20042;-76
2022/05/23 08:27:00;;;;;;;7.25;4.82;;;21.10;99.90;;;;;;4973332;28;20042;-78
2022/05/23 08:29:26;;;;;;;7.93;5.20;;;21.20;99.90;;;;;;4972738;28;20053;-79
2022/05/23 08:31:52;;;;;;;7.80;4.82;;;21.30;99.90;;;;;;4954439;28;20094;-79
2022/05/23 08:34:17;;;;;;;10.38;5.35;;;21.40;99.90;;;;;;4951203;28;20058;-79
2022/05/23 08:36:43;;;;;;;8.52;4.97;;;21.60;99.90;;;;;;4957219;28;20118;-79
2022/05/23 08:39:09;;;;;;;8.57;5.05;;;21.50;99.90;;;;;;4973027;28;20030;-78
2022/05/23 08:41:41;;;;;;;7.20;4.90;;;21.60;99.90;;;;;;4956759;28;20117;-79
2022/05/23 08:44:23;;;;;;;13.50;5.25;;;21.70;99.90;;;;;;4972982;28;20078;-79
2022/05/23 08:47:05;;;;;;;9.45;5.20;;;21.80;99.90;;;;;;4956676;28;20050;-79
2022/05/23 08:49:43;;;;;;;11.40;5.20;;;21.90;99.90;;;;;;4961584;28;20026;-79
2022/05/23 08:52:13;;;;;;;7.03;4.55;;;22.10;99.90;;;;;;4973946;28;20109;-79
2022/05/23 08:55:01;;;;;;;8.82;4.88;;;22.10;99.90;;;;;;4972949;28;20053;-79
2022/05/23 08:57:55;;;;;;;10.50;5.07;;;22.20;99.40;;;;;;4974646;28;20074;-79
2022/05/23 09:00:44;;;;;;;11.43;4.38;;;22.30;99.90;;;;;;4972529;28;20038;-78
2022/05/23 09:03:25;;;;;;;8.85;4.60;;;22.40;99.20;;;;;;4972941;28;20515;-79
2022/05/23 09:05:56;;;;;;;7.60;4.53;;;22.50;98.70;;;;;;4957531;28;20077;-78
2022/05/23 09:08:25;;;;;;;9.00;4.20;;;22.60;98.70;;;;;;4972772;28;20117;-78
2022/05/23 09:11:20;;;;;;;10.65;5.03;;;22.70;99.50;;;;;;4972631;28;20054;-78
2022/05/23 09:13:46;;;;;;;9.60;4.25;;;22.80;99.30;;;;;;4952751;28;20110;-77
2022/05/23 09:16:13;;;;;;;10.52;4.28;;;23.00;98.40;;;;;;4966798;28;20042;-78
2022/05/23 09:19:16;;;;;;;8.55;4.47;;;23.00;98.20;;;;;;4972628;28;20126;-78
2022/05/23 09:24:43;;;;;;;8.82;4.15;;;23.00;98.00;;;;;;4973912;28;20105;-79
2022/05/23 09:27:25;;;;;;;7.72;4.00;;;23.10;97.30;;;;;;4973788;28;20060;-79
2022/05/23 09:29:56;;;;;;;6.10;3.40;;;23.20;97.50;;;;;;4956595;28;20034;-79
2022/05/23 09:32:34;;;;;;;7.68;3.95;;;23.10;97.20;;;;;;4973079;28;20050;-79
2022/05/23 09:35:20;;;;;;;6.95;4.32;;;23.20;97.80;;;;;;4973586;28;20038;-79
2022/05/23 09:38:02;;;;;;;10.02;4.90;;;23.30;97.90;;;;;;4972538;28;20042;-79
2022/05/23 09:40:31;;;;;;;7.15;3.97;;;23.40;98.30;;;;;;4972398;28;20042;-79
2022/05/23 09:49:09;;;;;;;8.05;3.33;;;23.60;96.30;;;;;;4972266;28;20077;-80
2022/05/23 09:51:56;;;;;;;7.25;3.22;;;23.80;95.40;;;;;;4972184;28;20062;-80
2022/05/23 09:54:28;;;;;;;4.18;3.30;;;24.00;95.30;;;;;;4956271;28;20129;-80
2022/05/23 09:56:55;;;;;;;6.43;3.47;;;24.10;95.70;;;;;;4971911;28;20035;-80
2022/05/23 09:59:40;;;;;;;4.97;3.90;;;24.00;95.60;;;;;;4955934;28;20464;-80
2022/05/23 10:02:15;;;;;;;6.00;3.60;;;23.90;95.70;;;;;;4955734;28;20491;-80
2022/05/23 10:04:45;;;;;;;10.32;3.83;;;23.90;96.20;;;;;;4972350;28;20056;-80
2022/05/23 10:07:27;;;;;;;8.40;3.58;;;23.80;95.90;;;;;;4970433;28;20050;-80
2022/05/23 10:10:30;;;;;;;5.85;3.17;;;23.70;95.50;;;;;;4971268;28;20050;-80
2022/05/23 10:13:17;;;;;;;8.35;3.47;;;23.70;95.30;;;;;;4967203;28;20113;-80
2022/05/23 10:15:46;;;;;;;6.90;3.38;;;23.70;95.50;;;;;;4956620;28;20463;-80
2022/05/23 10:18:22;;;;;;;6.68;3.42;;;23.80;95.50;;;;;;4972283;28;20045;-80
2022/05/23 10:20:47;;;;;;;5.75;3.30;;;23.90;95.40;;;;;;4957336;28;20046;-80
2022/05/23 10:23:19;;;;;;;4.07;3.10;;;24.00;95.40;;;;;;4960628;28;20117;-79
2022/05/23 10:26:21;;;;;;;4.75;3.15;;;24.10;94.70;;;;;;4989497;28;20050;-80
2022/05/23 10:29:03;;;;;;;6.93;3.30;;;24.30;95.00;;;;;;4946631;28;20518;-80
2022/05/23 10:31:46;;;;;;;2.72;2.53;;;24.60;94.70;;;;;;4976123;28;20085;-80
2022/05/23 10:34:33;;;;;;;4.90;3.63;;;24.80;93.80;;;;;;4962737;28;20050;-80
2022/05/23 10:37:03;;;;;;;5.82;2.55;;;25.00;91.70;;;;;;4959373;28;20097;-80
2022/05/23 10:42:31;;;;;;;4.13;2.55;;;25.40;93.50;;;;;;4977743;28;20045;-80
2022/05/23 10:45:16;;;;;;;5.75;2.50;;;25.50;92.60;;;;;;4958798;28;20108;-80
2022/05/23 10:48:03;;;;;;;3.67;2.47;;;25.70;90.50;;;;;;4945843;28;20451;-79
2022/05/23 10:51:05;;;;;;;3.88;2.47;;;25.80;91.30;;;;;;4956347;28;20073;-79
2022/05/23 10:54:14;;;;;;;3.25;2.50;;;25.90;92.50;;;;;;4966139;28;20169;-79
2022/05/23 10:56:42;;;;;;;3.03;2.72;;;26.00;90.00;;;;;;4959255;28;20150;-79
2022/05/23 10:59:17;;;;;;;5.10;2.60;;;26.00;90.30;;;;;;4974834;28;20509;-79
2022/05/23 11:02:01;;;;;;;5.47;2.55;;;26.00;90.40;;;;;;4975652;28;20042;-79
2022/05/23 11:04:49;;;;;;;6.55;3.17;;;26.00;90.40;;;;;;4959257;28;20073;-79
2022/05/23 11:07:36;;;;;;;7.55;3.53;;;26.00;88.60;;;;;;4975382;28;20053;-79
2022/05/23 11:10:07;;;;;;;5.13;3.00;;;26.10;90.20;;;;;;4962086;28;20053;-79
2022/05/23 11:12:40;;;;;;;5.55;2.88;;;26.10;90.10;;;;;;4974909;28;20125;-79
2022/05/23 11:15:37;;;;;;;4.15;2.78;;;26.10;89.40;;;;;;4975547;28;20766;-80
2022/05/23 11:18:12;;;;;;;7.43;3.15;;;26.20;86.60;;;;;;4975884;28;20092;-79
2022/05/23 11:20:39;;;;;;;6.45;2.80;;;26.20;87.30;;;;;;4991480;28;20047;-79
2022/05/23 11:23:28;;;;;;;7.90;2.83;;;26.40;87.10;;;;;;4975244;28;20424;-78
2022/05/23 11:26:16;;;;;;;14.25;3.47;;;26.40;86.50;;;;;;4975309;28;20038;-79
2022/05/23 11:34:33;;;;;;;8.00;2.80;;;25.70;86.70;;;;;;4971859;28;20511;-80
2022/05/23 11:39:51;;;;;;;;;;;25.80;85.80;;;;;;4975244;28;20042;-80
2022/05/23 11:42:16;;;;;;;6.38;2.58;;;25.50;83.50;;;;;;4974220;28;19924;-80
2022/05/23 11:44:42;;;;;;;5.07;2.83;;;25.50;86.70;;;;;;4974727;28;20042;-79
2022/05/23 11:47:21;;;;;;;5.10;2.50;;;25.50;86.30;;;;;;4957217;28;20042;-79
2022/05/23 11:50:17;;;;;;;7.35;2.30;;;25.60;87.50;;;;;;4985106;28;20034;-79
2022/05/23 11:52:49;;;;;;;10.57;2.40;;;25.80;84.00;;;;;;4964681;28;20124;-80
2022/05/23 11:55:55;;;;;;;7.22;2.60;;;25.90;86.70;;;;;;4963571;28;20066;-79
2022/05/23 11:58:36;;;;;;;4.43;2.58;;;26.20;85.50;;;;;;4951614;28;20073;-79
2022/05/23 12:01:11;;;;;;;7.85;3.22;;;26.20;85.00;;;;;;4968432;28;20039;-79
2022/05/23 12:03:55;;;;;;;5.10;2.60;;;26.40;86.20;;;;;;4952426;28;20093;-78
2022/05/23 12:06:24;;;;;;;4.75;2.72;;;26.60;86.50;;;;;;4981876;28;20100;-80
2022/05/23 12:09:16;;;;;;;4.00;2.80;;;26.50;83.50;;;;;;4952395;28;20075;-79
2022/05/23 12:11:49;;;;;;;5.72;3.42;;;26.50;83.30;;;;;;4951192;28;20514;-79
2022/05/23 12:14:33;;;;;;;6.97;3.15;;;26.40;84.40;;;;;;4948843;28;20077;-79
2022/05/23 12:17:07;;;;;;;8.05;3.22;;;26.40;84.10;;;;;;4972288;28;20583;-79
2022/05/23 12:19:39;;;;;;;5.65;3.33;;;26.40;85.20;;;;;;4970241;28;20558;-79
2022/05/23 12:22:35;;;;;;;6.15;3.05;;;26.40;85.10;;;;;;4966293;28;20527;-80
2022/05/23 12:25:10;;;;;;;5.45;3.10;;;26.50;85.40;;;;;;4968784;28;20059;-79
2022/05/23 12:27:36;;;;;;;3.95;2.78;;;26.60;83.90;;;;;;4960423;28;20073;-78
2022/05/23 12:30:24;;;;;;;5.47;3.40;;;26.50;84.70;;;;;;4939492;28;20130;-74
2022/05/23 12:32:55;;;;;;;6.00;2.85;;;26.50;82.40;;;;;;4939646;28;20360;-74
2022/05/23 12:35:30;;;;;;;10.95;3.30;;;26.50;84.20;;;;;;4937808;28;20050;-74
2022/05/23 12:38:16;;;;;;;4.35;2.67;;;26.40;84.60;;;;;;4954281;28;20069;-74
2022/05/23 12:41:12;;;;;;;6.13;3.33;;;26.20;84.50;;;;;;4938891;28;20046;-74
2022/05/23 12:44:36;;;;;;;6.30;3.13;;;25.90;83.40;;;;;;4948144;28;20059;-76
2022/05/23 12:47:34;;;;;;;16.90;4.05;;;25.70;84.70;;;;;;4886309;29;20052;-75
2022/05/23 12:50:24;;;;;;;5.00;3.25;;;25.50;84.10;;;;;;4955962;28;20042;-74
2022/05/23 12:53:25;;;;;;;3.72;2.95;;;25.40;87.60;;;;;;4955399;28;20073;-73
2022/05/23 12:56:16;;;;;;;6.47;2.80;;;25.30;85.70;;;;;;4954752;28;20051;-73
2022/05/23 12:58:50;;;;;;;9.98;3.38;;;25.20;85.60;;;;;;4953554;28;20030;-73
2022/05/23 13:01:25;;;;;;;9.77;3.25;;;25.10;87.10;;;;;;4955534;28;20034;-74
2022/05/23 13:03:57;;;;;;;7.03;3.30;;;25.10;87.10;;;;;;4955412;28;20134;-73
2022/05/23 13:06:42;;;;;;;7.28;2.50;;;25.10;88.20;;;;;;4941984;28;20039;-74
2022/05/23 13:09:44;;;;;;;7.80;2.97;;;25.10;86.80;;;;;;4959331;28;20750;-74
2022/05/23 13:12:19;;;;;;;6.65;2.53;;;25.10;87.30;;;;;;4956672;28;20499;-75
2022/05/23 13:15:05;;;;;;;5.40;2.72;;;25.00;87.00;;;;;;4951810;28;20061;-75
2022/05/23 13:17:40;;;;;;;3.13;2.60;;;24.90;86.90;;;;;;4937980;28;20058;-75
2022/05/23 13:23:00;;;;;;;6.25;3.08;;;24.80;87.70;;;;;;4955515;28;20045;-75
2022/05/23 13:25:30;;;;;;;7.75;2.80;;;24.80;88.30;;;;;;4940965;28;20804;-76
2022/05/23 13:27:59;;;;;;;4.63;2.90;;;24.80;89.20;;;;;;4944097;28;20488;-78
2022/05/23 13:30:53;;;;;;;5.70;2.72;;;24.60;87.50;;;;;;4943733;28;20038;-79
2022/05/23 13:33:20;;;;;;;3.92;2.80;;;24.60;86.60;;;;;;4957628;28;20061;-78
2022/05/23 13:35:53;;;;;;;4.20;2.75;;;24.50;87.20;;;;;;4958064;28;20046;-77
2022/05/23 13:38:23;;;;;;;5.53;2.88;;;24.60;87.60;;;;;;4944156;28;20178;-78
2022/05/23 13:40:55;;;;;;;5.78;2.97;;;24.60;87.60;;;;;;4958034;28;20042;-79
2022/05/23 13:43:43;;;;;;;5.30;3.13;;;24.70;88.80;;;;;;4943250;28;20606;-79
2022/05/23 13:46:27;;;;;;;8.48;3.33;;;24.80;87.20;;;;;;4954425;28;20069;-79
2022/05/23 13:49:08;;;;;;;5.35;3.25;;;24.80;86.70;;;;;;4941847;28;20130;-79
2022/05/23 13:51:46;;;;;;;6.00;3.60;;;24.80;86.10;;;;;;4958495;28;20186;-80
2022/05/23 13:54:22;;;;;;;7.28;3.72;;;24.70;88.60;;;;;;4941820;28;20062;-80
2022/05/23 13:56:56;;;;;;;5.43;3.55;;;24.60;89.30;;;;;;4947271;28;20042;-78
2022/05/23 13:59:27;;;;;;;4.20;3.38;;;24.60;89.20;;;;;;4965222;28;20065;-78
2022/05/23 14:02:04;;;;;;;5.25;3.35;;;24.50;88.90;;;;;;4949743;28;20117;-78
2022/05/23 14:04:35;;;;;;;6.45;3.20;;;24.50;89.10;;;;;;4949652;28;20047;-78
2022/05/23 14:07:11;;;;;;;8.32;3.08;;;24.50;88.90;;;;;;4949560;28;20053;-78
2022/05/23 14:09:48;;;;;;;6.03;3.17;;;24.60;89.50;;;;;;4965048;28;20046;-78
2022/05/23 14:12:20;;;;;;;5.25;2.83;;;24.60;87.30;;;;;;4959832;28;20042;-78
2022/05/23 14:14:55;;;;;;;5.15;3.28;;;24.60;89.00;;;;;;4945722;28;20475;-78